createdAt,value
2019-04-23T00:01:23.614Z,39.20
2019-04-23T00:03:46.539Z,39.30
2019-04-23T00:06:34.306Z,39.60
2019-04-23T00:11:26.101Z,40.20
2019-04-23T00:14:02.768Z,40.20
2019-04-23T00:16:29.869Z,40.40
2019-04-23T00:18:59.443Z,40.40
2019-04-23T00:21:42.581Z,40.40
2019-04-23T00:24:46.568Z,40.50
2019-04-23T00:27:19.617Z,40.60
2019-04-23T00:29:44.443Z,40.90
2019-04-23T00:32:08.141Z,40.90
2019-04-23T00:37:24.281Z,40.70
2019-04-23T00:39:46.803Z,40.80
2019-04-23T00:42:25.859Z,40.40
2019-04-23T00:47:25.523Z,40.50
2019-04-23T00:50:03.599Z,40.70
2019-04-23T00:52:30.524Z,40.80
2019-04-23T00:55:05.524Z,40.80
2019-04-23T00:57:34.052Z,40.60
2019-04-23T01:00:20.419Z,40.20
2019-04-23T01:07:38.130Z,40.20
2019-04-23T01:12:46.687Z,40.20
2019-04-23T01:15:23.975Z,40.20
2019-04-23T01:17:47.500Z,40.50
2019-04-23T01:20:44.196Z,40.30
2019-04-23T01:22:50.960Z,40.40
2019-04-23T01:25:36.378Z,40.40
2019-04-23T01:28:26.671Z,40.30
2019-04-23T01:31:03.777Z,40.60
2019-04-23T01:33:35.824Z,40.40
2019-04-23T01:36:21.462Z,40.40
2019-04-23T01:41:07.759Z,40.40
2019-04-23T01:46:16.210Z,41.10
2019-04-23T01:48:48.252Z,41.20
2019-04-23T01:51:08.199Z,41.20
2019-04-23T01:58:51.965Z,40.90
2019-04-23T02:01:25.851Z,41.60
2019-04-23T02:06:27.928Z,41.30
2019-04-23T02:09:00.416Z,40.90
2019-04-23T02:11:33.379Z,40.90
2019-04-23T02:14:06.966Z,41.00
2019-04-23T02:16:36.083Z,41.30
2019-04-23T02:19:14.344Z,41.40
2019-04-23T02:22:01.174Z,41.20
2019-04-23T02:24:39.242Z,41.30
2019-04-23T02:27:05.910Z,41.40
2019-04-23T02:29:53.492Z,41.40
2019-04-23T02:32:08.904Z,41.70
2019-04-23T02:34:58.121Z,41.70
2019-04-23T02:37:28.618Z,41.60
2019-04-23T02:42:58.200Z,41.70
2019-04-23T02:44:53.801Z,42.20
2019-04-23T02:47:48.721Z,42.50
2019-04-23T02:52:30.989Z,42.40
2019-04-23T02:55:18.020Z,42.40
2019-04-23T03:00:25.338Z,42.30
2019-04-23T03:02:42.961Z,42.20
2019-04-23T03:05:13.924Z,42.80
2019-04-23T03:15:34.555Z,42.50
2019-04-23T03:18:37.520Z,42.80
2019-04-23T03:23:52.251Z,42.90
2019-04-23T03:29:15.789Z,43.10
2019-04-23T03:39:40.382Z,43.00
2019-04-23T03:41:59.670Z,42.80
2019-04-23T03:44:37.667Z,42.90
2019-04-23T03:52:21.210Z,43.70
2019-04-23T03:54:44.905Z,44.00
2019-04-23T04:02:40.044Z,43.70
2019-04-23T04:04:49.877Z,43.90
2019-04-23T04:07:51.284Z,43.90
2019-04-23T04:09:59.666Z,43.80
2019-04-23T04:15:10.549Z,44.00
2019-04-23T04:25:19.286Z,44.20
2019-04-23T04:27:54.090Z,44.10
2019-04-23T04:32:59.095Z,44.30
2019-04-23T04:40:29.016Z,44.20
2019-04-23T04:47:55.645Z,44.50
2019-04-23T04:50:31.298Z,44.60
2019-04-23T04:53:18.702Z,44.60
2019-04-23T04:55:36.251Z,45.10
2019-04-23T04:58:07.420Z,45.20
2019-04-23T05:00:57.073Z,44.80
2019-04-23T05:08:21.668Z,44.70
2019-04-23T05:11:04.772Z,44.60
2019-04-23T05:15:56.102Z,44.20
2019-04-23T05:18:47.452Z,43.20
2019-04-23T05:23:50.340Z,40.30
2019-04-23T05:26:21.034Z,39.50
2019-04-23T05:33:59.942Z,37.90
2019-04-23T05:36:41.546Z,37.60
2019-04-23T05:41:30.451Z,36.80
2019-04-23T05:44:05.197Z,36.90
2019-04-23T05:46:45.856Z,37.10
2019-04-23T05:49:09.379Z,36.60
2019-04-23T05:51:46.414Z,35.80
2019-04-23T05:54:13.992Z,36.10
2019-04-23T05:56:46.736Z,36.00
2019-04-23T06:00:16.102Z,36.60
2019-04-23T06:01:54.014Z,36.20
2019-04-23T06:07:11.135Z,35.50
2019-04-23T06:09:21.068Z,34.60
2019-04-23T06:12:36.920Z,34.30
2019-04-23T06:14:29.102Z,34.70
2019-04-23T06:17:03.234Z,34.10
2019-04-23T06:19:30.388Z,34.40
2019-04-23T06:22:28.847Z,34.70
2019-04-23T06:24:39.844Z,35.00
2019-04-23T06:29:45.032Z,32.90
2019-04-23T06:32:16.726Z,32.30
2019-04-23T06:34:41.619Z,32.20
2019-04-23T06:37:16.954Z,32.70
2019-04-23T06:39:48.315Z,33.60
2019-04-23T06:42:17.738Z,33.40
2019-04-23T06:44:58.497Z,32.90
2019-04-23T06:47:27.628Z,32.40
2019-04-23T06:52:43.761Z,31.20
2019-04-23T06:55:01.102Z,30.30
2019-04-23T06:57:38.282Z,31.30
2019-04-23T07:00:24.158Z,31.00
2019-04-23T07:02:38.777Z,31.30
2019-04-23T07:05:15.751Z,31.00
2019-04-23T07:08:00.904Z,30.50
2019-04-23T07:12:47.163Z,30.40
2019-04-23T07:17:50.027Z,30.00
2019-04-23T07:20:21.634Z,30.10
2019-04-23T07:22:58.112Z,30.70
2019-04-23T07:25:26.869Z,30.40
2019-04-23T07:27:59.443Z,30.30
2019-04-23T07:30:32.972Z,31.40
2019-04-23T07:33:04.206Z,30.80
2019-04-23T07:35:38.370Z,30.40
2019-04-23T07:38:40.912Z,30.70
2019-04-23T07:41:28.567Z,31.50
2019-04-23T07:47:19.447Z,33.10
2019-04-23T07:49:38.562Z,32.90
2019-04-23T07:54:51.295Z,32.10
2019-04-23T07:57:21.910Z,32.30
2019-04-23T07:59:59.263Z,32.60
2019-04-23T08:02:25.929Z,33.00
2019-04-23T08:05:04.732Z,32.90
2019-04-23T08:07:28.275Z,32.30
2019-04-23T08:10:02.256Z,32.80
2019-04-23T08:12:32.025Z,32.70
2019-04-23T08:17:34.690Z,33.70
2019-04-23T08:20:07.349Z,34.40
2019-04-23T08:22:40.854Z,35.10
2019-04-23T08:25:19.207Z,35.20
2019-04-23T08:27:53.511Z,34.70
2019-04-23T08:30:15.271Z,35.20
2019-04-23T08:33:02.475Z,36.00
2019-04-23T08:35:26.689Z,35.80
2019-04-23T08:40:40.199Z,37.10
2019-04-23T08:43:36.888Z,37.30
2019-04-23T08:45:58.224Z,36.80
2019-04-23T08:48:55.866Z,35.90
2019-04-23T08:51:09.657Z,36.60
2019-04-23T08:56:11.924Z,37.20
2019-04-23T08:58:38.056Z,36.20
2019-04-23T09:01:08.915Z,34.90
2019-04-23T09:03:39.634Z,34.10
2019-04-23T09:06:20.347Z,34.40
2019-04-23T09:09:05.235Z,34.90
2019-04-23T09:11:40.459Z,34.90
2019-04-23T09:14:00.879Z,35.00
2019-04-23T09:16:28.427Z,34.40
2019-04-23T09:19:04.044Z,33.70
2019-04-23T09:21:26.975Z,33.40
2019-04-23T09:24:00.213Z,33.40
2019-04-23T09:26:37.840Z,33.30
2019-04-23T09:29:04.205Z,34.10
2019-04-23T09:34:22.353Z,33.40
2019-04-23T09:36:59.646Z,34.20
2019-04-23T09:39:46.868Z,34.70
2019-04-23T09:42:22.646Z,34.20
2019-04-23T09:50:12.394Z,34.70
2019-04-23T09:52:46.689Z,34.90
2019-04-23T09:55:22.410Z,35.50
2019-04-23T09:57:51.925Z,35.50
2019-04-23T10:00:25.468Z,35.90
2019-04-23T10:02:36.357Z,36.50
2019-04-23T10:05:07.298Z,36.40
2019-04-23T10:07:39.683Z,36.50
2019-04-23T10:09:57.453Z,37.10
2019-04-23T10:12:30.151Z,37.00
2019-04-23T10:15:08.136Z,36.30
2019-04-23T10:17:34.619Z,36.50
2019-04-23T10:20:06.909Z,36.90
2019-04-23T10:22:38.052Z,37.70
2019-04-23T10:25:09.025Z,37.90
2019-04-23T10:27:39.315Z,37.50
2019-04-23T10:30:10.111Z,37.40
2019-04-23T10:32:40.382Z,37.20
2019-04-23T10:35:22.239Z,37.30
2019-04-23T10:37:50.947Z,37.40
2019-04-23T10:40:19.393Z,37.10
2019-04-23T10:42:48.405Z,36.00
2019-04-23T10:45:41.434Z,35.90
2019-04-23T10:48:49.615Z,35.50
2019-04-23T10:51:24.945Z,36.40
2019-04-23T10:53:56.265Z,36.10
2019-04-23T10:56:34.368Z,35.60
2019-04-23T10:59:01.814Z,35.50
2019-04-23T11:01:41.363Z,35.30
2019-04-23T11:04:33.851Z,34.40
2019-04-23T11:06:50.613Z,34.70
2019-04-23T11:09:38.638Z,34.50
2019-04-23T11:12:01.051Z,33.60
2019-04-23T11:14:34.120Z,32.70
2019-04-23T11:17:03.819Z,32.50
2019-04-23T11:19:43.669Z,32.50
2019-04-23T11:22:22.385Z,31.70
2019-04-23T11:24:42.116Z,31.20
2019-04-23T11:27:21.114Z,31.20
2019-04-23T11:35:15.203Z,31.00
2019-04-23T11:40:09.256Z,31.30
2019-04-23T11:42:42.675Z,31.60
2019-04-23T11:45:26.091Z,32.20
2019-04-23T11:50:42.057Z,32.00
2019-04-23T11:52:56.400Z,32.50
2019-04-23T11:55:44.834Z,33.00
2019-04-23T11:58:13.745Z,33.40
2019-04-23T12:04:05.239Z,33.20
2019-04-23T12:06:36.468Z,34.00
2019-04-23T12:09:09.951Z,34.70
2019-04-23T12:14:36.381Z,34.20
2019-04-23T12:22:17.979Z,33.80
2019-04-23T12:25:03.318Z,34.20
2019-04-23T12:27:25.926Z,34.50
2019-04-23T12:29:52.379Z,34.80
2019-04-23T12:37:36.382Z,35.50
2019-04-23T12:40:07.592Z,35.60
2019-04-23T12:45:14.663Z,34.10
2019-04-23T12:47:53.505Z,34.20
2019-04-23T12:50:38.342Z,34.20
2019-04-23T12:52:46.915Z,33.80
2019-04-23T12:57:46.123Z,33.80
2019-04-23T13:00:20.923Z,33.40
2019-04-23T13:02:48.590Z,34.20
2019-04-23T13:08:23.356Z,32.90
2019-04-23T13:13:11.347Z,32.10
2019-04-23T13:15:34.326Z,32.20
2019-04-23T13:18:26.960Z,31.80
2019-04-23T13:20:47.879Z,32.00
2019-04-23T13:25:47.362Z,32.60
2019-04-23T13:31:12.525Z,33.00
2019-04-23T13:36:24.386Z,32.50
2019-04-23T13:43:47.791Z,33.60
2019-04-23T13:48:46.996Z,33.80
2019-04-23T13:51:27.369Z,33.60
2019-04-23T13:54:17.328Z,34.20
2019-04-23T13:56:46.510Z,34.50
2019-04-23T14:01:48.484Z,34.70
2019-04-23T14:04:27.054Z,34.00
2019-04-23T14:06:47.092Z,34.30
2019-04-23T14:11:45.923Z,34.00
2019-04-23T14:14:34.446Z,34.30
2019-04-23T14:16:59.680Z,35.10
2019-04-23T14:19:26.474Z,35.60
2019-04-23T14:22:03.067Z,35.50
2019-04-23T14:24:38.061Z,34.70
2019-04-23T14:27:10.816Z,35.00
2019-04-23T14:29:43.639Z,35.40
2019-04-23T14:32:19.268Z,35.80
2019-04-23T14:34:45.708Z,34.80
2019-04-23T14:37:12.143Z,35.90
2019-04-23T14:39:45.826Z,36.00
2019-04-23T14:42:39.980Z,35.70
2019-04-23T14:45:20.946Z,35.90
2019-04-23T14:50:27.963Z,35.60
2019-04-23T14:58:00.514Z,36.40
2019-04-23T15:00:29.112Z,36.30
2019-04-23T15:03:01.602Z,37.10
2019-04-23T15:07:58.097Z,35.30
2019-04-23T15:10:59.777Z,35.60
2019-04-23T15:13:22.760Z,35.50
2019-04-23T15:15:55.647Z,35.60
2019-04-23T15:18:37.243Z,35.60
2019-04-23T15:21:19.219Z,35.30
2019-04-23T15:28:44.888Z,36.30
2019-04-23T15:31:47.028Z,36.70
2019-04-23T15:34:17.651Z,36.40
2019-04-23T15:36:50.810Z,36.20
2019-04-23T15:39:19.617Z,36.20
2019-04-23T15:46:47.119Z,35.80
2019-04-23T15:54:25.304Z,35.50
2019-04-23T15:56:57.909Z,35.70
2019-04-23T16:01:41.985Z,35.30
2019-04-23T16:04:03.529Z,35.40
2019-04-23T16:06:36.848Z,35.00
2019-04-23T16:09:28.469Z,36.00
2019-04-23T16:11:59.602Z,35.00
2019-04-23T16:17:15.371Z,35.20
2019-04-23T16:25:08.092Z,35.50
2019-04-23T16:27:36.136Z,36.10
2019-04-23T16:33:05.105Z,36.50
2019-04-23T16:35:34.629Z,36.80
2019-04-23T16:38:17.979Z,37.10
2019-04-23T16:43:11.485Z,37.90
2019-04-23T16:45:40.542Z,37.80
2019-04-23T16:48:26.209Z,37.90
2019-04-23T16:51:05.333Z,37.70
2019-04-23T16:53:21.516Z,37.80
2019-04-23T16:55:55.398Z,37.80
2019-04-23T16:58:48.865Z,38.30
2019-04-23T17:03:43.981Z,38.40
2019-04-23T17:06:21.796Z,38.50
2019-04-23T17:11:41.665Z,38.80
2019-04-23T17:14:13.369Z,38.80
2019-04-23T17:16:41.654Z,39.20
2019-04-23T17:22:02.814Z,39.40
2019-04-23T17:26:53.899Z,39.60
2019-04-23T17:29:32.195Z,39.60
2019-04-23T17:31:49.038Z,39.50
2019-04-23T17:34:35.096Z,39.70
2019-04-23T17:37:13.602Z,39.70
2019-04-23T17:39:43.841Z,39.50
2019-04-23T17:42:22.377Z,40.00
2019-04-23T17:44:57.433Z,39.90
2019-04-23T17:47:27.197Z,40.40
2019-04-23T17:52:35.600Z,40.40
2019-04-23T17:55:01.693Z,40.50
2019-04-23T17:57:37.947Z,40.20
2019-04-23T18:02:59.127Z,39.80
2019-04-23T18:05:12.941Z,39.70
2019-04-23T18:07:56.678Z,39.90
2019-04-23T18:15:15.894Z,39.30
2019-04-23T18:18:00.663Z,39.60
2019-04-23T18:23:06.174Z,40.00
2019-04-23T18:25:51.925Z,40.10
2019-04-23T18:28:20.042Z,40.80
2019-04-23T18:31:15.709Z,40.90
2019-04-23T18:36:13.192Z,40.90
2019-04-23T18:38:55.314Z,40.90
2019-04-23T18:41:23.641Z,40.90
2019-04-23T18:43:56.361Z,41.10
2019-04-23T18:46:31.921Z,41.30
2019-04-23T18:48:52.924Z,41.30
2019-04-23T18:51:31.741Z,41.50
2019-04-23T18:53:56.553Z,41.50
2019-04-23T18:56:59.478Z,41.80
2019-04-23T18:59:09.037Z,42.10
2019-04-23T19:01:50.114Z,42.10
2019-04-23T19:04:45.258Z,42.10
2019-04-23T19:06:44.056Z,42.00
2019-04-23T19:10:02.173Z,42.00
2019-04-23T19:12:14.444Z,41.80
2019-04-23T19:15:04.151Z,42.20
2019-04-23T19:24:56.522Z,42.60
2019-04-23T19:27:47.117Z,42.60
2019-04-23T19:30:18.877Z,42.50
2019-04-23T19:32:54.001Z,42.80
2019-04-23T19:35:41.930Z,42.90
2019-04-23T19:38:05.766Z,43.10
2019-04-23T19:40:46.264Z,43.10
2019-04-23T19:43:19.436Z,43.10
2019-04-23T19:45:56.701Z,43.20
2019-04-23T19:48:33.234Z,43.70
2019-04-23T19:51:00.753Z,43.50
2019-04-23T19:53:42.673Z,43.70
2019-04-23T19:56:08.996Z,43.70
2019-04-23T20:11:09.190Z,44.90
2019-04-23T20:13:54.179Z,45.00
2019-04-23T20:16:23.189Z,45.20
2019-04-23T20:21:12.473Z,45.80
2019-04-23T20:24:08.500Z,46.40
2019-04-23T20:26:17.304Z,46.70
2019-04-23T20:29:19.266Z,47.00
2019-04-23T20:36:38.539Z,47.40
2019-04-23T20:39:17.278Z,47.20
2019-04-23T20:47:06.168Z,47.70
2019-04-23T20:49:40.139Z,48.00
2019-04-23T20:52:04.740Z,48.50
2019-04-23T20:54:51.192Z,48.30
2019-04-23T21:00:01.631Z,48.40
2019-04-23T21:03:05.312Z,48.70
2019-04-23T21:05:10.086Z,48.90
2019-04-23T21:12:57.824Z,49.30
2019-04-23T21:20:28.163Z,49.60
2019-04-23T21:23:06.728Z,49.90
2019-04-23T21:33:15.921Z,50.30
2019-04-23T21:41:32.946Z,50.90
2019-04-23T21:46:38.300Z,50.80
2019-04-23T21:51:45.447Z,51.30
2019-04-23T21:56:37.293Z,51.20
2019-04-23T21:59:13.366Z,51.10
2019-04-23T22:01:47.683Z,50.90
2019-04-23T22:09:34.735Z,50.90
2019-04-23T22:17:10.254Z,51.10
2019-04-23T22:21:56.788Z,52.00
2019-04-23T22:24:39.848Z,52.40
2019-04-23T22:27:08.632Z,52.40
2019-04-23T22:32:04.479Z,52.60
2019-04-23T22:39:47.262Z,52.70
2019-04-23T22:42:26.854Z,52.50
2019-04-23T22:44:57.661Z,52.90
2019-04-23T22:47:13.332Z,53.00
2019-04-23T22:50:02.184Z,52.90
2019-04-23T22:55:04.042Z,52.40
2019-04-23T22:57:59.804Z,52.50
2019-04-23T23:00:14.489Z,52.50
2019-04-23T23:03:53.160Z,52.60
2019-04-23T23:05:39.439Z,52.20
2019-04-23T23:08:01.451Z,52.10
2019-04-23T23:10:32.836Z,52.20
2019-04-23T23:13:03.503Z,52.70
2019-04-23T23:15:30.384Z,53.10
2019-04-23T23:20:51.208Z,53.30
2019-04-23T23:23:11.470Z,52.90
2019-04-23T23:25:39.688Z,52.70
2019-04-23T23:30:58.073Z,53.30
2019-04-23T23:33:18.828Z,53.10
2019-04-23T23:35:54.067Z,53.40
2019-04-23T23:38:27.123Z,53.60
2019-04-23T23:41:03.906Z,53.90
2019-04-23T23:43:30.326Z,53.60
2019-04-23T23:46:14.705Z,53.60
2019-04-23T23:48:29.773Z,53.50
2019-04-23T23:51:14.351Z,53.40
2019-04-23T23:53:50.558Z,53.50
